createdAt,value
2019-05-06T00:00:56.268Z,1006.61
2019-05-06T00:01:49.111Z,1006.61
2019-05-06T00:02:47.663Z,1006.59
2019-05-06T00:03:46.232Z,1006.61
2019-05-06T00:04:44.870Z,1006.58
2019-05-06T00:05:43.654Z,1006.61
2019-05-06T00:06:43.967Z,1006.6
2019-05-06T00:07:40.683Z,1006.6
2019-05-06T00:08:39.266Z,1006.62
2019-05-06T00:09:38.087Z,1006.51
2019-05-06T00:10:36.623Z,1006.55
2019-05-06T00:11:35.167Z,1006.54
2019-05-06T00:12:33.747Z,1006.55
2019-05-06T00:13:34.196Z,1006.58
2019-05-06T00:14:30.854Z,1006.6
2019-05-06T00:15:29.690Z,1006.61
2019-05-06T00:16:28.397Z,1006.6
2019-05-06T00:17:26.923Z,1006.61
2019-05-06T00:18:25.741Z,1006.64
2019-05-06T00:19:24.740Z,1006.58
2019-05-06T00:20:24.259Z,1006.6
2019-05-06T00:21:21.418Z,1006.61
2019-05-06T00:22:20.054Z,1006.59
2019-05-06T00:23:18.616Z,1006.61
2019-05-06T00:24:17.283Z,1006.57
2019-05-06T00:25:16.867Z,1006.61
2019-05-06T00:26:14.591Z,1006.57
2019-05-06T00:27:14.114Z,1006.61
2019-05-06T00:28:13.612Z,1006.59
2019-05-06T00:29:10.407Z,1006.59
2019-05-06T00:30:08.979Z,1006.61
2019-05-06T00:31:12.304Z,1006.54
2019-05-06T00:32:06.104Z,1006.62
2019-05-06T00:33:04.659Z,1006.58
2019-05-06T00:34:04.327Z,1006.57
2019-05-06T00:35:02.133Z,1006.59
2019-05-06T00:36:00.714Z,1006.6
2019-05-06T00:36:59.255Z,1006.66
2019-05-06T00:37:58.037Z,1006.63
2019-05-06T00:38:56.704Z,1006.66
2019-05-06T00:39:55.274Z,1006.64
2019-05-06T00:40:54.379Z,1006.62
2019-05-06T00:41:54.174Z,1006.61
2019-05-06T00:42:51.197Z,1006.67
2019-05-06T00:43:49.731Z,1006.68
2019-05-06T00:44:48.350Z,1006.64
2019-05-06T00:45:46.901Z,1006.61
2019-05-06T00:46:45.643Z,1006.66
2019-05-06T00:47:44.420Z,1006.66
2019-05-06T00:48:44.697Z,1006.62
2019-05-06T00:49:43.506Z,1006.65
2019-05-06T00:50:40.238Z,1006.68
2019-05-06T00:51:38.791Z,1006.63
2019-05-06T00:52:37.339Z,1006.65
2019-05-06T00:53:36.176Z,1006.63
2019-05-06T00:54:34.724Z,1006.64
2019-05-06T00:55:33.849Z,1006.63
2019-05-06T00:56:33.953Z,1006.64
2019-05-06T00:57:30.525Z,1006.64
2019-05-06T00:58:29.092Z,1006.67
2019-05-06T00:59:27.956Z,1006.68
2019-05-06T01:00:26.559Z,1006.69
2019-05-06T01:01:29.372Z,1006.66
2019-05-06T01:02:23.900Z,1006.64
2019-05-06T01:03:23.779Z,1006.68
2019-05-06T01:04:20.986Z,1006.7
2019-05-06T01:05:19.554Z,1006.68
2019-05-06T01:06:18.135Z,1006.71
2019-05-06T01:07:16.688Z,1006.68
2019-05-06T01:08:15.238Z,1006.71
2019-05-06T01:09:14.181Z,1006.7
2019-05-06T01:10:14.245Z,1006.66
2019-05-06T01:11:11.587Z,1006.71
2019-05-06T01:12:10.152Z,1006.72
2019-05-06T01:13:08.816Z,1006.73
2019-05-06T01:14:07.511Z,1006.71
2019-05-06T01:15:06.258Z,1006.76
2019-05-06T01:16:04.804Z,1006.72
2019-05-06T01:17:03.995Z,1006.7
2019-05-06T01:18:04.123Z,1006.75
2019-05-06T01:19:00.733Z,1006.76
2019-05-06T01:19:59.305Z,1006.79
2019-05-06T01:20:57.885Z,1006.77
2019-05-06T01:21:56.481Z,1006.8
2019-05-06T01:22:55.026Z,1006.75
2019-05-06T01:23:54.411Z,1006.82
2019-05-06T01:24:52.501Z,1006.79
2019-05-06T01:25:51.316Z,1006.77
2019-05-06T01:26:49.895Z,1006.83
2019-05-06T01:27:48.445Z,1006.74
2019-05-06T01:28:47.018Z,1006.75
2019-05-06T01:29:45.915Z,1006.72
2019-05-06T01:30:44.558Z,1006.79
2019-05-06T01:31:45.895Z,1006.76
2019-05-06T01:32:43.554Z,1006.75
2019-05-06T01:33:40.467Z,1006.81
2019-05-06T01:34:39.022Z,1006.79
2019-05-06T01:35:37.614Z,1006.78
2019-05-06T01:36:36.321Z,1006.8
2019-05-06T01:37:34.879Z,1006.79
2019-05-06T01:38:34.029Z,1006.76
2019-05-06T01:39:34.127Z,1006.82
2019-05-06T01:40:31.201Z,1006.78
2019-05-06T01:41:30.033Z,1006.82
2019-05-06T01:42:28.630Z,1006.82
2019-05-06T01:43:27.201Z,1006.88
2019-05-06T01:44:26.045Z,1006.83
2019-05-06T01:45:24.624Z,1006.86
2019-05-06T01:46:24.286Z,1006.83
2019-05-06T01:47:23.738Z,1006.81
2019-05-06T01:48:20.399Z,1006.87
2019-05-06T01:49:19.002Z,1006.86
2019-05-06T01:50:17.701Z,1006.82
2019-05-06T01:51:16.398Z,1006.86
2019-05-06T01:52:14.979Z,1006.93
2019-05-06T01:53:14.041Z,1006.89
2019-05-06T01:54:14.107Z,1006.89
2019-05-06T01:55:11.073Z,1006.89
2019-05-06T01:56:09.981Z,1006.9
2019-05-06T01:57:08.555Z,1006.96
2019-05-06T01:58:07.252Z,1006.9
2019-05-06T01:59:05.815Z,1006.94
2019-05-06T02:00:04.866Z,1006.92
2019-05-06T02:01:04.016Z,1006.94
2019-05-06T02:02:03.823Z,1006.92
2019-05-06T02:02:59.973Z,1006.9
2019-05-06T02:03:58.531Z,1006.9
2019-05-06T02:04:57.073Z,1006.94
2019-05-06T02:08:36.189Z,1006.98
2019-05-06T02:09:34.749Z,1006.97
2019-05-06T02:10:34.630Z,1006.99
2019-05-06T02:11:33.683Z,1006.99
2019-05-06T02:12:30.517Z,1006.98
2019-05-06T02:13:29.040Z,1006.99
2019-05-06T02:14:27.618Z,1006.98
2019-05-06T02:15:26.367Z,1006.97
2019-05-06T02:16:24.935Z,1006.96
2019-05-06T02:17:23.946Z,1006.99
2019-05-06T02:18:24.316Z,1007.06
2019-05-06T02:19:20.947Z,1007.02
2019-05-06T02:20:19.527Z,1007
2019-05-06T02:21:18.116Z,1007.03
2019-05-06T02:22:16.806Z,1007.03
2019-05-06T02:23:15.343Z,1007.04
2019-05-06T02:24:14.230Z,1007.05
2019-05-06T02:25:13.805Z,1007.06
2019-05-06T02:26:11.209Z,1007.04
2019-05-06T02:27:10.116Z,1007.03
2019-05-06T02:28:08.689Z,1007.07
2019-05-06T02:30:31.989Z,1007.04
2019-05-06T02:31:30.675Z,1007.03
2019-05-06T02:32:31.290Z,1007.06
2019-05-06T02:33:28.144Z,1007.03
2019-05-06T02:34:26.691Z,1007.05
2019-05-06T02:35:26.239Z,1007.04
2019-05-06T02:36:25.736Z,1007.06
2019-05-06T02:37:25.294Z,1007.02
2019-05-06T02:38:23.253Z,1007.06
2019-05-06T02:39:23.269Z,1007.03
2019-05-06T02:40:18.935Z,1007.02
2019-05-06T02:41:17.685Z,1007.06
2019-05-06T02:42:16.242Z,1007
2019-05-06T02:43:14.938Z,1007.05
2019-05-06T02:44:13.998Z,1007.06
2019-05-06T02:45:12.777Z,1007.04
2019-05-06T02:46:12.958Z,1007.03
2019-05-06T02:47:09.805Z,1007.02
2019-05-06T02:48:08.379Z,1007.02
2019-05-06T02:49:06.978Z,1007.06
2019-05-06T02:50:05.564Z,1007.02
2019-05-06T02:51:04.335Z,1007.04
2019-05-06T02:52:03.280Z,1007.04
2019-05-06T02:53:02.635Z,1007.03
2019-05-06T02:54:02.874Z,1007.03
2019-05-06T02:54:58.879Z,1007.05
2019-05-06T02:55:57.458Z,1007.07
2019-05-06T02:56:56.086Z,1007.1
2019-05-06T02:57:54.685Z,1007.08
2019-05-06T02:58:53.731Z,1007.1
2019-05-06T02:59:55.129Z,1007.1
2019-05-06T03:00:53.682Z,1007.09
2019-05-06T03:01:49.192Z,1007.14
2019-05-06T03:02:48.617Z,1007.11
2019-05-06T03:03:46.576Z,1007.1
2019-05-06T03:04:45.122Z,1007.1
2019-05-06T03:05:44.192Z,1007.11
2019-05-06T03:06:44.627Z,1007.1
2019-05-06T03:07:43.426Z,1007.13
2019-05-06T03:08:39.396Z,1007.16
2019-05-06T03:09:38.201Z,1007.16
2019-05-06T03:10:36.772Z,1007.1
2019-05-06T03:11:35.405Z,1007.15
2019-05-06T03:12:34.129Z,1007.11
2019-05-06T03:13:33.882Z,1007.14
2019-05-06T03:14:34.113Z,1007.14
2019-05-06T03:15:29.823Z,1007.11
2019-05-06T03:16:28.390Z,1007.09
2019-05-06T03:17:26.966Z,1007.11
2019-05-06T03:18:25.856Z,1007.17
2019-05-06T03:19:24.516Z,1007.11
2019-05-06T03:20:23.684Z,1007.14
2019-05-06T03:21:24.635Z,1007.11
2019-05-06T03:22:20.336Z,1007.11
2019-05-06T03:23:18.892Z,1007.15
2019-05-06T03:24:17.484Z,1007.15
2019-05-06T03:25:16.074Z,1007.16
2019-05-06T03:26:14.643Z,1007.17
2019-05-06T03:27:14.259Z,1007.18
2019-05-06T03:28:13.224Z,1007.18
2019-05-06T03:29:13.347Z,1007.21
2019-05-06T03:30:09.155Z,1007.22
2019-05-06T03:31:08.450Z,1007.23
2019-05-06T03:32:07.611Z,1007.22
2019-05-06T03:33:39.835Z,1007.22
2019-05-06T03:34:24.211Z,1007.22
2019-05-06T03:35:24.458Z,1007.2
2019-05-06T03:36:14.002Z,1007.2
2019-05-06T03:37:00.097Z,1007.22
2019-05-06T03:37:58.667Z,1007.23
2019-05-06T03:38:57.244Z,1007.21
2019-05-06T03:39:55.819Z,1007.21
2019-05-06T03:40:54.485Z,1007.16
2019-05-06T03:41:53.750Z,1007.23
2019-05-06T03:42:53.853Z,1007.22
2019-05-06T03:43:50.412Z,1007.23
2019-05-06T03:44:48.983Z,1007.22
2019-05-06T03:45:47.770Z,1007.18
2019-05-06T03:46:46.358Z,1007.2
2019-05-06T03:47:44.898Z,1007.2
2019-05-06T03:48:44.381Z,1007.24
2019-05-06T03:49:42.703Z,1007.19
2019-05-06T03:50:43.737Z,1007.22
2019-05-06T03:51:39.402Z,1007.22
2019-05-06T03:52:38.466Z,1007.19
2019-05-06T03:53:37.009Z,1007.25
2019-05-06T03:54:35.826Z,1007.24
2019-05-06T03:55:34.494Z,1007.25
2019-05-06T03:56:33.836Z,1007.26
2019-05-06T03:57:33.227Z,1007.27
2019-05-06T03:58:30.430Z,1007.28
2019-05-06T03:59:29.065Z,1007.25
2019-05-06T04:00:27.643Z,1007.28
2019-05-06T04:01:26.352Z,1007.28
2019-05-06T04:02:24.931Z,1007.28
2019-05-06T04:03:41.318Z,1007.34
2019-05-06T04:04:23.347Z,1007.33
2019-05-06T04:05:23.407Z,1007.34
2019-05-06T04:06:19.531Z,1007.3
2019-05-06T04:07:18.119Z,1007.35
2019-05-06T04:08:20.120Z,1007.36
2019-05-06T04:09:15.200Z,1007.33
2019-05-06T04:10:13.931Z,1007.29
2019-05-06T04:11:13.564Z,1007.28
2019-05-06T04:12:12.802Z,1007.28
2019-05-06T04:13:09.429Z,1007.32
2019-05-06T04:14:08.201Z,1007.32
2019-05-06T04:15:06.766Z,1007.34
2019-05-06T04:16:05.393Z,1007.31
2019-05-06T04:17:04.159Z,1007.34
2019-05-06T04:18:03.828Z,1007.32
2019-05-06T04:19:04.009Z,1007.35
2019-05-06T04:19:59.842Z,1007.41
2019-05-06T04:20:58.405Z,1007.4
2019-05-06T04:21:56.952Z,1007.43
2019-05-06T04:22:55.704Z,1007.42
2019-05-06T04:23:54.459Z,1007.47
2019-05-06T04:24:53.851Z,1007.47
2019-05-06T04:25:52.677Z,1007.49
2019-05-06T04:26:53.113Z,1007.5
2019-05-06T04:27:48.986Z,1007.5
2019-05-06T04:28:47.542Z,1007.55
2019-05-06T04:29:46.259Z,1007.51
2019-05-06T04:30:44.823Z,1007.53
2019-05-06T04:31:43.685Z,1007.51
2019-05-06T04:32:43.373Z,1007.47
2019-05-06T04:33:40.944Z,1007.49
2019-05-06T04:34:39.531Z,1007.51
2019-05-06T04:35:38.147Z,1007.52
2019-05-06T04:36:36.715Z,1007.56
2019-05-06T04:37:35.252Z,1007.54
2019-05-06T04:38:34.084Z,1007.5
2019-05-06T04:39:33.147Z,1007.56
2019-05-06T04:40:33.067Z,1007.55
2019-05-06T04:41:30.086Z,1007.62
2019-05-06T04:42:28.656Z,1007.55
2019-05-06T04:43:27.321Z,1007.61
2019-05-06T04:44:25.765Z,1007.59
2019-05-06T04:45:24.475Z,1007.57
2019-05-06T04:46:23.718Z,1007.58
2019-05-06T04:47:24.068Z,1007.61
2019-05-06T04:48:23.451Z,1007.63
2019-05-06T04:49:18.983Z,1007.6
2019-05-06T04:50:17.722Z,1007.63
2019-05-06T04:51:16.363Z,1007.63
2019-05-06T04:52:14.927Z,1007.68
2019-05-06T04:53:13.842Z,1007.62
2019-05-06T04:54:13.326Z,1007.66
2019-05-06T04:55:13.844Z,1007.71
2019-05-06T04:56:09.844Z,1007.67
2019-05-06T04:57:08.381Z,1007.73
2019-05-06T04:58:06.965Z,1007.75
2019-05-06T04:59:06.186Z,1007.72
2019-05-06T05:00:04.552Z,1007.71
2019-05-06T05:01:04.223Z,1007.74
2019-05-06T05:02:02.631Z,1007.71
2019-05-06T05:03:02.981Z,1007.75
2019-05-06T05:03:59.146Z,1007.69
2019-05-06T05:04:58.117Z,1007.72
2019-05-06T05:05:56.715Z,1007.75
2019-05-06T05:09:35.461Z,1007.82
2019-05-06T05:10:34.029Z,1007.83
2019-05-06T05:11:33.230Z,1007.83
2019-05-06T05:12:33.352Z,1007.81
2019-05-06T05:13:32.729Z,1007.87
2019-05-06T05:14:28.603Z,1007.84
2019-05-06T05:15:27.147Z,1007.87
2019-05-06T05:16:26.011Z,1007.89
2019-05-06T05:17:24.570Z,1007.89
2019-05-06T05:18:23.489Z,1007.91
2019-05-06T05:19:23.028Z,1007.99
2019-05-06T05:20:33.971Z,1007.97
2019-05-06T05:21:19.263Z,1008.01
2019-05-06T05:22:18.105Z,1007.96
2019-05-06T05:23:16.754Z,1008.01
2019-05-06T05:24:15.281Z,1008.03
2019-05-06T05:25:13.986Z,1007.99
2019-05-06T05:26:12.534Z,1008.04
2019-05-06T05:27:12.510Z,1008.04
2019-05-06T05:28:09.819Z,1008.03
2019-05-06T05:29:08.574Z,1008.05
2019-05-06T05:30:07.082Z,1008.01
2019-05-06T05:32:47.545Z,1008.07
2019-05-06T05:33:46.308Z,1008.09
2019-05-06T05:34:44.857Z,1008.15
2019-05-06T05:35:43.739Z,1008.16
2019-05-06T05:36:42.631Z,1008.15
2019-05-06T05:37:41.925Z,1008.13
2019-05-06T05:38:39.446Z,1008.18
2019-05-06T05:39:37.997Z,1008.22
2019-05-06T05:40:36.657Z,1008.22
2019-05-06T05:41:35.179Z,1008.22
2019-05-06T05:42:33.958Z,1008.23
2019-05-06T05:43:32.762Z,1008.27
2019-05-06T05:44:32.366Z,1008.22
2019-05-06T05:45:29.901Z,1008.26
2019-05-06T05:46:28.442Z,1008.29
2019-05-06T05:47:27.009Z,1008.29
2019-05-06T05:48:25.995Z,1008.26
2019-05-06T05:49:24.955Z,1008.27
2019-05-06T05:50:23.659Z,1008.32
2019-05-06T05:51:22.389Z,1008.31
2019-05-06T05:52:22.229Z,1008.3
2019-05-06T05:53:19.570Z,1008.3
2019-05-06T05:54:18.349Z,1008.31
2019-05-06T05:55:16.930Z,1008.34
2019-05-06T05:56:15.581Z,1008.32
2019-05-06T05:57:14.113Z,1008.33
2019-05-06T05:58:13.022Z,1008.32
2019-05-06T05:59:12.225Z,1008.35
2019-05-06T06:00:10.131Z,1008.34
2019-05-06T06:01:08.732Z,1008.34
2019-05-06T06:02:07.445Z,1008.34
2019-05-06T06:03:06.996Z,1008.33
2019-05-06T06:04:04.739Z,1008.3
2019-05-06T06:05:03.508Z,1008.31
2019-05-06T06:06:03.020Z,1008.31
2019-05-06T06:07:02.640Z,1008.32
2019-05-06T06:08:01.639Z,1008.37
2019-05-06T06:08:58.526Z,1008.34
2019-05-06T06:09:57.075Z,1008.35
2019-05-06T06:10:55.792Z,1008.37
2019-05-06T06:11:54.519Z,1008.37
2019-05-06T06:12:53.081Z,1008.34
2019-05-06T06:13:52.263Z,1008.38
2019-05-06T06:14:53.490Z,1008.36
2019-05-06T06:15:49.179Z,1008.35
2019-05-06T06:16:47.908Z,1008.34
2019-05-06T06:19:27.869Z,1008.36
2019-05-06T06:20:26.522Z,1008.34
2019-05-06T06:21:28.010Z,1008.35
2019-05-06T06:22:23.831Z,1008.35
2019-05-06T06:23:23.040Z,1008.39
2019-05-06T06:26:22.634Z,1008.37
2019-05-06T06:28:46.233Z,1008.35
2019-05-06T06:29:45.379Z,1008.39
2019-05-06T06:30:43.330Z,1008.39
2019-05-06T06:31:42.758Z,1008.35
2019-05-06T06:32:41.894Z,1008.4
2019-05-06T06:33:39.282Z,1008.33
2019-05-06T06:34:38.230Z,1008.41
2019-05-06T06:35:36.782Z,1008.38
2019-05-06T06:36:35.356Z,1008.36
2019-05-06T06:37:33.913Z,1008.34
2019-05-06T06:38:32.449Z,1008.38
2019-05-06T06:39:32.651Z,1008.34
2019-05-06T06:40:29.861Z,1008.37
2019-05-06T06:41:28.587Z,1008.34
2019-05-06T06:42:27.230Z,1008.32
2019-05-06T06:43:25.893Z,1008.37
2019-05-06T06:44:24.469Z,1008.32
2019-05-06T06:45:23.186Z,1008.34
2019-05-06T06:46:22.465Z,1008.31
2019-05-06T06:47:22.429Z,1008.34
2019-05-06T06:48:19.240Z,1008.3
2019-05-06T06:49:17.949Z,1008.35
2019-05-06T06:50:16.527Z,1008.38
2019-05-06T06:51:15.155Z,1008.32
2019-05-06T06:52:14.834Z,1008.38
2019-05-06T06:53:12.444Z,1008.39
2019-05-06T06:54:12.266Z,1008.42
2019-05-06T06:55:09.654Z,1008.38
2019-05-06T06:56:08.441Z,1008.38
2019-05-06T06:57:09.278Z,1008.38
2019-05-06T06:58:05.670Z,1008.44
2019-05-06T06:59:04.227Z,1008.39
2019-05-06T07:00:04.040Z,1008.37
2019-05-06T07:01:03.094Z,1008.35
2019-05-06T07:01:59.956Z,1008.38
2019-05-06T07:02:58.583Z,1008.37
2019-05-06T07:03:57.133Z,1008.41
2019-05-06T07:04:56.197Z,1008.38
2019-05-06T07:05:54.763Z,1008.41
2019-05-06T07:06:53.368Z,1008.35
2019-05-06T07:07:53.084Z,1008.37
2019-05-06T07:08:51.756Z,1008.37
2019-05-06T07:09:49.127Z,1008.36
2019-05-06T07:10:47.823Z,1008.44
2019-05-06T07:11:46.513Z,1008.42
2019-05-06T07:12:45.071Z,1008.42
2019-05-06T07:13:43.956Z,1008.41
2019-05-06T07:14:42.894Z,1008.37
2019-05-06T07:15:42.599Z,1008.38
2019-05-06T07:16:42.864Z,1008.4
2019-05-06T07:17:38.634Z,1008.44
2019-05-06T07:18:37.241Z,1008.43
2019-05-06T07:19:36.804Z,1008.47
2019-05-06T07:20:35.476Z,1008.44
2019-05-06T07:21:34.710Z,1008.46
2019-05-06T07:22:32.555Z,1008.44
2019-05-06T07:23:32.659Z,1008.44
2019-05-06T07:24:32.230Z,1008.51
2019-05-06T07:25:28.453Z,1008.51
2019-05-06T07:26:27.008Z,1008.48
2019-05-06T07:27:25.617Z,1008.51
2019-05-06T07:28:24.488Z,1008.48
2019-05-06T07:29:25.979Z,1008.5
2019-05-06T07:30:22.994Z,1008.53
2019-05-06T07:31:23.420Z,1008.49
2019-05-06T07:32:18.758Z,1008.52
2019-05-06T07:33:17.319Z,1008.46
2019-05-06T07:34:15.933Z,1008.46
2019-05-06T07:35:14.643Z,1008.49
2019-05-06T07:36:13.271Z,1008.49
2019-05-06T07:37:12.590Z,1008.51
2019-05-06T07:38:11.966Z,1008.48
2019-05-06T07:39:09.371Z,1008.54
2019-05-06T07:40:08.281Z,1008.55
2019-05-06T07:41:06.840Z,1008.58
2019-05-06T07:42:05.389Z,1008.55
2019-05-06T07:43:04.388Z,1008.57
2019-05-06T07:44:02.973Z,1008.51
2019-05-06T07:45:06.356Z,1008.52
2019-05-06T07:46:02.450Z,1008.53
2019-05-06T07:46:58.886Z,1008.5
2019-05-06T07:47:57.454Z,1008.5
2019-05-06T07:48:56.279Z,1008.52
2019-05-06T07:49:54.834Z,1008.49
2019-05-06T07:50:53.377Z,1008.52
2019-05-06T07:51:52.986Z,1008.48
2019-05-06T07:52:52.725Z,1008.56
2019-05-06T07:53:49.110Z,1008.57
2019-05-06T07:54:47.984Z,1008.56
2019-05-06T07:55:46.721Z,1008.55
2019-05-06T07:56:45.453Z,1008.56
2019-05-06T07:57:44.006Z,1008.56
2019-05-06T07:58:43.297Z,1008.58
2019-05-06T07:59:42.850Z,1008.57
2019-05-06T08:00:42.217Z,1008.54
2019-05-06T08:01:38.837Z,1008.5
2019-05-06T08:02:37.547Z,1008.55
2019-05-06T08:03:36.174Z,1008.52
2019-05-06T08:04:34.730Z,1008.54
2019-05-06T08:05:33.387Z,1008.52
2019-05-06T08:06:32.231Z,1008.55
2019-05-06T08:07:33.034Z,1008.56
2019-05-06T08:08:29.336Z,1008.54
2019-05-06T08:09:28.158Z,1008.57
2019-05-06T08:10:26.690Z,1008.53
2019-05-06T08:11:26.108Z,1008.55
2019-05-06T08:12:23.916Z,1008.53
2019-05-06T08:13:22.747Z,1008.52
2019-05-06T08:14:22.532Z,1008.56
2019-05-06T08:15:22.213Z,1008.53
2019-05-06T08:16:18.859Z,1008.49
2019-05-06T08:17:17.411Z,1008.51
2019-05-06T08:18:15.969Z,1008.5
2019-05-06T08:19:14.473Z,1008.5
2019-05-06T08:20:13.151Z,1008.48
2019-05-06T08:21:13.025Z,1008.51
2019-05-06T08:22:12.000Z,1008.55
2019-05-06T08:23:09.261Z,1008.55
2019-05-06T08:24:07.898Z,1008.57
2019-05-06T08:25:06.413Z,1008.54
2019-05-06T08:26:11.907Z,1008.52
2019-05-06T08:27:03.564Z,1008.5
2019-05-06T08:28:02.368Z,1008.52
2019-05-06T08:29:02.758Z,1008.56
2019-05-06T08:29:59.519Z,1008.49
2019-05-06T08:30:58.361Z,1008.54
2019-05-06T08:31:56.941Z,1008.51
2019-05-06T08:32:55.658Z,1008.47
2019-05-06T08:35:35.634Z,1008.44
2019-05-06T08:36:34.390Z,1008.41
2019-05-06T08:37:32.927Z,1008.42
2019-05-06T08:38:32.679Z,1008.46
2019-05-06T08:39:32.154Z,1008.44
2019-05-06T08:40:29.045Z,1008.41
2019-05-06T08:41:27.719Z,1008.42
2019-05-06T08:42:26.380Z,1008.42
2019-05-06T08:43:24.959Z,1008.41
2019-05-06T08:44:23.693Z,1008.36
2019-05-06T08:45:22.534Z,1008.38
2019-05-06T08:46:23.191Z,1008.44
2019-05-06T08:47:19.687Z,1008.48
2019-05-06T08:48:18.295Z,1008.39
2019-05-06T08:49:16.856Z,1008.43
2019-05-06T08:50:15.460Z,1008.42
2019-05-06T08:51:14.333Z,1008.37
2019-05-06T08:52:13.092Z,1008.36
2019-05-06T08:53:13.799Z,1008.36
2019-05-06T08:54:10.243Z,1008.34
2019-05-06T08:55:08.784Z,1008.34
2019-05-06T08:56:07.358Z,1008.33
2019-05-06T08:57:05.903Z,1008.35
2019-05-06T09:04:34.436Z,1008.3
2019-05-06T09:05:33.208Z,1008.31
2019-05-06T09:06:34.269Z,1008.35
2019-05-06T09:07:31.958Z,1008.36
2019-05-06T09:08:28.800Z,1008.32
2019-05-06T09:09:27.422Z,1008.33
2019-05-06T09:10:26.140Z,1008.37
2019-05-06T09:11:25.854Z,1008.27
2019-05-06T09:12:23.564Z,1008.28
2019-05-06T09:13:23.121Z,1008.29
2019-05-06T09:14:22.902Z,1008.27
2019-05-06T09:15:19.235Z,1008.28
2019-05-06T09:16:17.828Z,1008.24
2019-05-06T09:17:16.649Z,1008.27
2019-05-06T09:18:15.189Z,1008.28
2019-05-06T09:19:14.236Z,1008.22
2019-05-06T09:20:13.035Z,1008.25
2019-05-06T09:21:12.242Z,1008.22
2019-05-06T09:22:10.305Z,1008.29
2019-05-06T09:23:08.869Z,1008.22
2019-05-06T09:24:07.435Z,1008.22
2019-05-06T09:25:06.285Z,1008.19
2019-05-06T09:26:04.822Z,1008.2
2019-05-06T09:27:03.367Z,1008.18
2019-05-06T09:28:02.703Z,1008.2
2019-05-06T09:29:02.191Z,1008.17
2019-05-06T09:29:59.090Z,1008.16
2019-05-06T09:30:57.775Z,1008.17
2019-05-06T09:31:56.509Z,1008.15
2019-05-06T09:32:55.074Z,1008.19
2019-05-06T09:33:53.953Z,1008.22
2019-05-06T09:34:52.965Z,1008.21
2019-05-06T09:35:52.839Z,1008.15
2019-05-06T09:36:52.544Z,1008.2
2019-05-06T09:37:48.785Z,1008.21
2019-05-06T09:38:47.540Z,1008.17
2019-05-06T09:39:46.097Z,1008.13
2019-05-06T09:40:44.743Z,1008.15
2019-05-06T09:41:46.322Z,1008.23
2019-05-06T09:42:42.626Z,1008.16
2019-05-06T09:43:43.109Z,1008.23
2019-05-06T09:44:39.572Z,1008.21
2019-05-06T09:45:38.121Z,1008.21
2019-05-06T09:46:36.727Z,1008.25
2019-05-06T09:47:35.217Z,1008.26
2019-05-06T09:48:33.779Z,1008.26
2019-05-06T09:49:32.911Z,1008.25
2019-05-06T09:50:32.342Z,1008.27
2019-05-06T09:51:32.346Z,1008.26
2019-05-06T09:52:28.584Z,1008.28
2019-05-06T09:53:27.217Z,1008.24
2019-05-06T09:54:25.814Z,1008.27
2019-05-06T09:55:24.338Z,1008.29
2019-05-06T09:56:23.103Z,1008.26
2019-05-06T09:57:22.069Z,1008.27
2019-05-06T09:58:20.018Z,1008.21
2019-05-06T09:59:18.633Z,1008.23
2019-05-06T10:00:17.179Z,1008.24
2019-05-06T10:01:16.039Z,1008.25
2019-05-06T10:02:14.622Z,1008.26
2019-05-06T10:03:13.294Z,1008.25
2019-05-06T10:04:13.055Z,1008.22
2019-05-06T10:05:11.939Z,1008.24
2019-05-06T10:06:09.125Z,1008.18
2019-05-06T10:07:07.991Z,1008.2
2019-05-06T10:08:06.675Z,1008.22
2019-05-06T10:09:05.433Z,1008.26
2019-05-06T10:10:04.040Z,1008.27
2019-05-06T10:11:03.254Z,1008.18
2019-05-06T10:12:02.038Z,1008.14
2019-05-06T10:13:02.536Z,1008.16
2019-05-06T10:13:58.967Z,1008.21
2019-05-06T10:14:57.587Z,1008.18
2019-05-06T10:15:57.732Z,1008.21
2019-05-06T10:16:54.758Z,1008.18
2019-05-06T10:17:53.305Z,1008.17
2019-05-06T10:18:52.465Z,1008.22
2019-05-06T10:19:50.850Z,1008.23
2019-05-06T10:20:49.440Z,1008.18
2019-05-06T10:21:48.145Z,1008.22
2019-05-06T10:22:46.685Z,1008.19
2019-05-06T10:23:45.203Z,1008.22
2019-05-06T10:24:43.833Z,1008.14
2019-05-06T10:25:43.570Z,1008.25
2019-05-06T10:26:43.145Z,1008.23
2019-05-06T10:27:42.004Z,1008.23
2019-05-06T10:28:38.771Z,1008.2
2019-05-06T10:29:37.308Z,1008.23
2019-05-06T10:30:35.889Z,1008.27
2019-05-06T10:31:34.450Z,1008.26
2019-05-06T10:32:33.015Z,1008.24
2019-05-06T10:33:32.587Z,1008.23
2019-05-06T10:34:32.756Z,1008.22
2019-05-06T10:35:29.754Z,1008.21
2019-05-06T10:36:28.077Z,1008.2
2019-05-06T10:37:27.117Z,1008.18
2019-05-06T10:38:25.852Z,1008.16
2019-05-06T10:39:24.421Z,1008.21
2019-05-06T10:40:22.978Z,1008.19
2019-05-06T10:41:22.326Z,1008.19
2019-05-06T10:42:20.388Z,1008.21
2019-05-06T10:43:18.997Z,1008.2
2019-05-06T10:44:17.568Z,1008.18
2019-05-06T10:45:16.334Z,1008.16
2019-05-06T10:46:14.906Z,1008.21
2019-05-06T10:47:13.485Z,1008.14
2019-05-06T10:48:12.851Z,1008.24
2019-05-06T10:49:13.047Z,1008.2
2019-05-06T10:50:09.277Z,1008.19
2019-05-06T10:51:08.127Z,1008.21
2019-05-06T10:52:06.788Z,1008.14
2019-05-06T10:53:05.324Z,1008.17
2019-05-06T10:54:04.124Z,1008.1
2019-05-06T10:55:03.298Z,1008.1
2019-05-06T10:56:02.268Z,1008.05
2019-05-06T10:57:02.122Z,1008.1
2019-05-06T10:57:58.584Z,1008.09
2019-05-06T10:58:57.152Z,1008.15
2019-05-06T10:59:55.823Z,1008.1
2019-05-06T11:00:54.603Z,1008.11
2019-05-06T11:01:53.231Z,1008.13
2019-05-06T11:02:52.363Z,1008.12
2019-05-06T11:03:52.383Z,1008.14
2019-05-06T11:04:49.151Z,1008.06
2019-05-06T11:05:47.843Z,1008.08
2019-05-06T11:06:46.628Z,1008.08
2019-05-06T11:07:45.185Z,1008.05
2019-05-06T11:08:43.841Z,1008.05
2019-05-06T11:09:42.671Z,1008.03
2019-05-06T11:10:44.169Z,1008.06
2019-05-06T11:11:39.485Z,1008.05
2019-05-06T11:12:38.083Z,1007.98
2019-05-06T11:13:36.618Z,1008.08
2019-05-06T11:14:35.190Z,1008.05
2019-05-06T11:15:34.011Z,1008.03
2019-05-06T11:16:33.250Z,1008.04
2019-05-06T11:17:32.607Z,1008
2019-05-06T11:18:30.029Z,1008
2019-05-06T11:19:28.633Z,1008
2019-05-06T11:20:27.215Z,1008
2019-05-06T11:21:26.039Z,1007.99
2019-05-06T11:22:24.903Z,1007.96
2019-05-06T11:23:23.339Z,1007.93
2019-05-06T11:24:23.099Z,1007.97
2019-05-06T11:25:22.881Z,1007.98
2019-05-06T11:26:19.246Z,1007.99
2019-05-06T11:27:28.576Z,1008.05
2019-05-06T11:28:16.338Z,1008.04
2019-05-06T11:29:14.916Z,1008.07
2019-05-06T11:30:13.732Z,1008.02
2019-05-06T11:31:14.100Z,1008.08
2019-05-06T11:32:12.767Z,1007.99
2019-05-06T11:33:09.762Z,1007.95
2019-05-06T11:34:08.320Z,1008
2019-05-06T11:35:06.867Z,1008.02
2019-05-06T11:36:05.489Z,1008.03
2019-05-06T11:37:04.407Z,1007.97
2019-05-06T11:38:03.012Z,1007.99
2019-05-06T11:39:01.564Z,1008.01
2019-05-06T11:40:00.402Z,1008.01
2019-05-06T11:40:58.976Z,1008.03
2019-05-06T11:42:14.797Z,1007.97
2019-05-06T11:42:56.644Z,1008.02
2019-05-06T11:43:55.216Z,1007.98
2019-05-06T11:44:53.956Z,1007.97
2019-05-06T11:45:52.480Z,1007.92
2019-05-06T11:46:52.284Z,1007.96
2019-05-06T11:47:49.596Z,1007.97
2019-05-06T11:48:48.462Z,1007.95
2019-05-06T11:49:46.998Z,1007.93
2019-05-06T11:50:45.561Z,1007.91
2019-05-06T11:51:44.505Z,1007.91
2019-05-06T11:52:43.597Z,1007.88
2019-05-06T11:53:41.640Z,1007.91
2019-05-06T11:54:42.232Z,1007.95
2019-05-06T11:55:39.093Z,1007.91
2019-05-06T11:56:48.610Z,1007.92
2019-05-06T11:57:36.197Z,1007.86
2019-05-06T11:58:34.737Z,1007.92
2019-05-06T11:59:33.333Z,1007.94
2019-05-06T12:00:33.246Z,1007.99
2019-05-06T12:01:32.763Z,1007.95
2019-05-06T12:02:29.305Z,1007.96
2019-05-06T12:03:27.887Z,1007.95
2019-05-06T12:04:26.604Z,1007.9
2019-05-06T12:05:25.267Z,1007.95
2019-05-06T12:06:24.213Z,1007.94
2019-05-06T12:07:24.428Z,1007.92
2019-05-06T12:08:22.163Z,1007.91
2019-05-06T12:09:22.092Z,1007.93
2019-05-06T12:10:18.436Z,1007.99
2019-05-06T12:11:17.037Z,1007.98
2019-05-06T12:12:15.926Z,1007.97
2019-05-06T12:13:14.605Z,1007.98
2019-05-06T12:14:13.200Z,1007.94